createdAt,value
2024-04-22T00:00:24.413Z,11.82
2024-04-22T00:02:51.642Z,11.88
2024-04-22T00:05:18.828Z,11.85
2024-04-22T00:07:46.092Z,11.83
2024-04-22T00:10:13.445Z,11.85
2024-04-22T00:12:40.619Z,11.83
2024-04-22T00:15:08.247Z,11.83
2024-04-22T00:17:35.516Z,11.81
2024-04-22T00:20:03.624Z,11.86
2024-04-22T00:22:30.899Z,11.83
2024-04-22T00:24:59.189Z,11.82
2024-04-22T00:27:26.550Z,11.83
2024-04-22T00:29:53.699Z,11.83
2024-04-22T00:32:21.275Z,11.82
2024-04-22T00:34:48.567Z,11.81
2024-04-22T00:37:15.722Z,11.78
2024-04-22T00:39:42.941Z,11.76
2024-04-22T00:42:10.193Z,11.74
2024-04-22T00:44:37.503Z,11.72
2024-04-22T00:47:04.809Z,11.75
2024-04-22T00:49:32.183Z,11.72
2024-04-22T00:51:59.469Z,11.74
2024-04-22T00:54:26.888Z,11.68
2024-04-22T00:56:54.136Z,11.69
2024-04-22T00:59:21.458Z,11.72
2024-04-22T01:01:48.851Z,11.66
2024-04-22T01:04:16.613Z,11.65
2024-04-22T01:06:43.837Z,11.59
2024-04-22T01:09:11.014Z,11.56
2024-04-22T01:11:38.351Z,11.62
2024-04-22T01:14:05.816Z,11.61
2024-04-22T01:16:33.012Z,11.61
2024-04-22T01:19:00.201Z,11.58
2024-04-22T01:21:30.290Z,11.57
2024-04-22T01:23:58.727Z,11.54
2024-04-22T01:26:26.514Z,11.52
2024-04-22T01:28:53.763Z,11.48
2024-04-22T01:31:20.962Z,11.48
2024-04-22T01:33:48.129Z,11.45
2024-04-22T01:36:15.268Z,11.44
2024-04-22T01:38:42.402Z,11.44
2024-04-22T01:41:09.518Z,11.43
2024-04-22T01:43:37.242Z,11.37
2024-04-22T01:46:05.499Z,11.34
2024-04-22T01:48:33.395Z,11.32
2024-04-22T01:51:00.656Z,11.31
2024-04-22T01:53:27.861Z,11.33
2024-04-22T01:55:58.106Z,11.33
2024-04-22T01:58:25.926Z,11.29
2024-04-22T02:00:53.541Z,11.32
2024-04-22T02:03:20.834Z,11.26
2024-04-22T02:05:48.043Z,11.22
2024-04-22T02:08:15.297Z,11.25
2024-04-22T02:10:42.608Z,11.25
2024-04-22T02:13:09.906Z,11.24
2024-04-22T02:15:37.226Z,11.17
2024-04-22T02:18:04.527Z,11.23
2024-04-22T02:20:31.744Z,11.20
2024-04-22T02:22:58.877Z,11.20
2024-04-22T02:25:25.984Z,11.17
2024-04-22T02:27:54.659Z,11.19
2024-04-22T02:30:24.841Z,11.11
2024-04-22T02:32:52.079Z,11.15
2024-04-22T02:35:19.456Z,11.11
2024-04-22T02:37:46.638Z,11.13
2024-04-22T02:40:14.083Z,11.13
2024-04-22T02:42:47.086Z,11.07
2024-04-22T02:45:14.496Z,11.08
2024-04-22T02:47:41.810Z,11.04
2024-04-22T02:50:09.072Z,11.06
2024-04-22T02:52:36.216Z,11.07
2024-04-22T02:55:03.348Z,11.03
2024-04-22T02:57:30.484Z,11.06
2024-04-22T02:59:57.582Z,11.03
2024-04-22T03:02:24.849Z,11.09
2024-04-22T03:04:52.187Z,11.06
2024-04-22T03:07:19.454Z,11.01
2024-04-22T03:09:46.745Z,11.02
2024-04-22T03:12:14.593Z,11.00
2024-04-22T03:14:42.100Z,11.00
2024-04-22T03:17:09.431Z,11.00
2024-04-22T03:19:36.746Z,10.98
2024-04-22T03:22:04.303Z,10.96
2024-04-22T03:24:31.581Z,10.94
2024-04-22T03:26:58.782Z,10.96
2024-04-22T03:29:25.920Z,10.87
2024-04-22T03:31:53.221Z,10.82
2024-04-22T03:34:20.453Z,10.88
2024-04-22T03:36:47.717Z,10.85
2024-04-22T03:39:14.929Z,10.81
2024-04-22T03:41:42.105Z,10.75
2024-04-22T03:44:10.529Z,10.58
2024-04-22T03:46:56.596Z,10.58
2024-04-22T03:49:42.895Z,10.50
2024-04-22T03:52:13.084Z,10.40
2024-04-22T03:54:40.226Z,10.36
2024-04-22T03:57:07.390Z,10.31
2024-04-22T03:59:34.621Z,10.27
2024-04-22T04:02:01.755Z,10.22
2024-04-22T04:04:29.075Z,10.21
2024-04-22T04:06:56.316Z,10.17
2024-04-22T04:09:26.188Z,10.13
2024-04-22T04:11:53.932Z,10.12
2024-04-22T04:14:21.175Z,10.03
2024-04-22T04:16:48.463Z,10.01
2024-04-22T04:19:15.677Z,9.96
2024-04-22T04:21:43.024Z,9.98
2024-04-22T04:24:10.198Z,9.95
2024-04-22T04:26:37.387Z,9.91
2024-04-22T04:29:13.670Z,9.90
2024-04-22T04:31:46.563Z,9.81
2024-04-22T04:34:15.611Z,9.83
2024-04-22T04:36:42.851Z,9.84
2024-04-22T04:39:10.587Z,9.82
2024-04-22T04:41:37.769Z,9.79
2024-04-22T04:44:05.199Z,9.77
2024-04-22T04:46:32.413Z,9.70
2024-04-22T04:48:59.635Z,9.68
2024-04-22T04:51:26.781Z,9.61
2024-04-22T04:53:53.914Z,9.62
2024-04-22T04:56:21.926Z,9.54
2024-04-22T04:58:50.016Z,9.58
2024-04-22T05:01:20.032Z,9.61
2024-04-22T05:03:47.639Z,9.63
2024-04-22T05:06:14.980Z,9.62
2024-04-22T05:08:42.155Z,9.63
2024-04-22T05:11:09.378Z,9.64
2024-04-22T05:13:36.604Z,9.66
2024-04-22T05:16:03.981Z,9.70
2024-04-22T05:18:31.183Z,9.65
2024-04-22T05:20:58.359Z,9.69
2024-04-22T05:23:25.494Z,9.66
2024-04-22T05:25:52.715Z,9.64
2024-04-22T05:28:20.158Z,9.62
2024-04-22T05:30:47.321Z,9.62
2024-04-22T05:33:35.803Z,9.52
2024-04-22T05:36:16.350Z,9.54
2024-04-22T05:38:46.620Z,9.46
2024-04-22T05:41:13.951Z,9.43
2024-04-22T05:43:41.290Z,9.44
2024-04-22T05:46:09.958Z,9.44
2024-04-22T05:48:37.491Z,9.43
2024-04-22T05:51:04.931Z,9.48
2024-04-22T05:53:32.099Z,9.47
2024-04-22T05:55:59.256Z,9.47
2024-04-22T05:58:26.483Z,9.48
2024-04-22T06:00:53.768Z,9.45
2024-04-22T06:03:21.103Z,9.46
2024-04-22T06:05:48.254Z,9.50
2024-04-22T06:08:15.480Z,9.52
2024-04-22T06:10:42.761Z,9.54
2024-04-22T06:13:10.007Z,9.54
2024-04-22T06:15:37.193Z,9.58
2024-04-22T06:18:04.559Z,9.67
2024-04-22T06:20:31.747Z,9.70
2024-04-22T06:22:58.982Z,9.79
2024-04-22T06:25:26.751Z,9.84
2024-04-22T06:27:53.956Z,9.88
2024-04-22T06:30:21.126Z,9.96
2024-04-22T06:32:48.737Z,9.95
2024-04-22T06:35:16.145Z,10.06
2024-04-22T06:37:43.442Z,10.11
2024-04-22T06:40:11.061Z,10.21
2024-04-22T06:42:38.309Z,10.27
2024-04-22T06:45:05.770Z,10.29
2024-04-22T06:47:33.185Z,10.36
2024-04-22T06:50:00.651Z,10.40
2024-04-22T06:52:27.937Z,10.46
2024-04-22T06:54:55.115Z,10.50
2024-04-22T06:57:22.379Z,10.56
2024-04-22T06:59:49.711Z,10.64
2024-04-22T07:02:20.251Z,10.71
2024-04-22T07:04:50.922Z,10.81
2024-04-22T07:07:18.218Z,10.86
2024-04-22T07:09:45.391Z,10.85
2024-04-22T07:12:12.578Z,10.90
2024-04-22T07:14:39.842Z,11.01
2024-04-22T07:17:07.586Z,11.07
2024-04-22T07:19:34.832Z,11.17
2024-04-22T07:22:02.685Z,11.20
2024-04-22T07:24:30.071Z,11.26
2024-04-22T07:26:58.074Z,11.36
2024-04-22T07:29:25.713Z,11.38
2024-04-22T07:31:53.357Z,11.48
2024-04-22T07:34:20.980Z,11.55
2024-04-22T07:36:53.191Z,11.60
2024-04-22T07:39:26.314Z,11.67
2024-04-22T07:41:53.496Z,11.72
2024-04-22T07:44:20.716Z,11.79
2024-04-22T07:46:48.033Z,11.86
2024-04-22T07:49:15.330Z,11.92
2024-04-22T07:51:42.536Z,11.99
2024-04-22T07:54:10.303Z,12.05
2024-04-22T07:56:37.953Z,12.09
2024-04-22T07:59:06.459Z,12.16
2024-04-22T08:01:34.264Z,12.18
2024-04-22T08:04:02.174Z,12.21
2024-04-22T08:06:38.839Z,12.30
2024-04-22T08:09:06.505Z,12.25
2024-04-22T08:11:33.945Z,12.28
2024-04-22T08:14:01.291Z,12.35
2024-04-22T08:16:28.505Z,12.36
2024-04-22T08:18:58.231Z,12.40
2024-04-22T08:21:25.498Z,12.48
2024-04-22T08:23:52.625Z,12.51
2024-04-22T08:26:19.802Z,12.59
2024-04-22T08:28:47.073Z,12.62
2024-04-22T08:31:14.386Z,12.64
2024-04-22T08:33:41.681Z,12.77
2024-04-22T08:36:09.180Z,12.87
2024-04-22T08:38:36.611Z,12.96
2024-04-22T08:41:04.007Z,13.07
2024-04-22T08:43:31.477Z,13.17
2024-04-22T08:45:59.112Z,13.28
2024-04-22T08:48:26.385Z,13.32
2024-04-22T08:50:58.604Z,13.45
2024-04-22T08:53:26.170Z,13.51
2024-04-22T08:55:53.892Z,13.57
2024-04-22T08:58:21.182Z,13.65
2024-04-22T09:00:48.366Z,13.73
2024-04-22T09:03:15.725Z,13.80
2024-04-22T09:05:43.192Z,13.77
2024-04-22T09:08:11.097Z,13.85
2024-04-22T09:11:06.453Z,13.85
2024-04-22T09:13:26.105Z,13.88
2024-04-22T09:15:59.789Z,13.94
2024-04-22T09:18:29.798Z,13.89
2024-04-22T09:21:08.949Z,13.96
2024-04-22T09:23:38.128Z,13.92
2024-04-22T09:26:07.232Z,14.00
2024-04-22T09:28:39.437Z,14.02
2024-04-22T09:31:10.232Z,14.03
2024-04-22T09:33:38.408Z,14.08
2024-04-22T09:36:07.361Z,14.16
2024-04-22T09:38:44.115Z,14.18
2024-04-22T09:41:15.512Z,14.23
2024-04-22T09:43:49.870Z,14.42
2024-04-22T09:46:21.012Z,14.57
2024-04-22T09:48:49.735Z,14.69
2024-04-22T09:51:19.469Z,14.78
2024-04-22T09:53:47.314Z,14.83
2024-04-22T09:56:28.743Z,14.98
2024-04-22T09:58:57.175Z,15.07
2024-04-22T10:01:24.982Z,15.12
2024-04-22T10:03:53.063Z,15.23
2024-04-22T10:06:24.628Z,15.31
2024-04-22T10:08:55.730Z,15.34
2024-04-22T10:11:26.836Z,15.41
2024-04-22T10:13:54.855Z,15.43
2024-04-22T10:16:22.260Z,15.36
2024-04-22T10:18:50.274Z,15.28
2024-04-22T10:21:23.318Z,15.16
2024-04-22T10:23:50.491Z,15.13
2024-04-22T10:26:19.463Z,15.03
2024-04-22T10:28:47.634Z,14.91
2024-04-22T10:31:23.572Z,14.88
2024-04-22T10:33:51.404Z,14.67
2024-04-22T10:36:19.348Z,14.53
2024-04-22T10:38:49.465Z,14.41
2024-04-22T10:41:16.898Z,14.27
2024-04-22T10:43:46.556Z,14.31
2024-04-22T10:46:14.157Z,14.25
2024-04-22T10:48:41.905Z,14.35
2024-04-22T10:51:12.076Z,14.40
2024-04-22T10:53:39.269Z,14.36
2024-04-22T10:56:09.440Z,14.46
2024-04-22T10:58:36.824Z,14.48
2024-04-22T11:01:04.802Z,14.52
2024-04-22T11:03:32.620Z,14.58
2024-04-22T11:06:06.858Z,14.66
2024-04-22T11:08:34.549Z,14.74
2024-04-22T11:11:02.563Z,14.87
2024-04-22T11:13:30.023Z,14.98
2024-04-22T11:16:07.426Z,15.16
2024-04-22T11:18:35.058Z,15.26
2024-04-22T11:21:02.825Z,15.39
2024-04-22T11:23:30.169Z,15.51
2024-04-22T11:25:57.699Z,15.59
2024-04-22T11:28:25.950Z,15.67
2024-04-22T11:30:53.193Z,15.69
2024-04-22T11:33:22.037Z,15.71
2024-04-22T11:35:52.376Z,15.72
2024-04-22T11:38:19.673Z,15.73
2024-04-22T11:40:48.898Z,15.71
2024-04-22T11:43:16.402Z,15.58
2024-04-22T11:45:43.668Z,15.56
2024-04-22T11:48:11.055Z,15.45
2024-04-22T11:50:40.628Z,15.43
2024-04-22T11:53:14.935Z,15.38
2024-04-22T11:55:49.060Z,15.29
2024-04-22T11:58:16.325Z,15.23
2024-04-22T12:00:43.895Z,15.15
2024-04-22T12:03:11.141Z,15.10
2024-04-22T12:05:38.528Z,14.99
2024-04-22T12:08:06.512Z,15.01
2024-04-22T12:10:33.830Z,15.02
2024-04-22T12:13:01.043Z,15.07
2024-04-22T12:15:28.268Z,15.11
2024-04-22T12:17:55.459Z,15.14
2024-04-22T12:20:22.817Z,15.17
2024-04-22T12:22:50.313Z,15.16
2024-04-22T12:25:17.766Z,15.14
2024-04-22T12:27:44.919Z,15.17
2024-04-22T12:30:12.304Z,15.16
2024-04-22T12:32:39.961Z,15.19
2024-04-22T12:35:07.381Z,15.21
2024-04-22T12:37:35.554Z,15.23
2024-04-22T12:40:02.852Z,15.23
2024-04-22T12:42:30.054Z,15.27
2024-04-22T12:44:57.237Z,15.30
2024-04-22T12:47:42.985Z,15.36
2024-04-22T12:50:38.945Z,15.38
2024-04-22T12:53:06.256Z,15.59
2024-04-22T12:55:34.099Z,15.66
2024-04-22T12:58:01.888Z,15.75
2024-04-22T13:00:29.816Z,15.81
2024-04-22T13:02:57.940Z,15.73
2024-04-22T13:05:28.694Z,15.79
2024-04-22T13:08:00.382Z,15.76
2024-04-22T13:10:27.821Z,15.73
2024-04-22T13:12:55.182Z,15.67
2024-04-22T13:15:22.419Z,15.65
2024-04-22T13:17:49.740Z,15.65
2024-04-22T13:20:17.134Z,15.66
2024-04-22T13:22:44.492Z,15.67
2024-04-22T13:25:11.822Z,15.71
2024-04-22T13:27:39.051Z,15.74
2024-04-22T13:30:10.385Z,15.77
2024-04-22T13:32:38.631Z,15.56
2024-04-22T13:35:06.877Z,15.68
2024-04-22T13:37:34.952Z,15.76
2024-04-22T13:40:02.256Z,15.76
2024-04-22T13:42:33.099Z,15.80
2024-04-22T13:45:03.546Z,15.77
2024-04-22T13:47:30.810Z,15.76
2024-04-22T13:50:01.255Z,15.76
2024-04-22T13:52:28.616Z,15.73
2024-04-22T13:54:55.949Z,15.80
2024-04-22T13:57:23.216Z,15.86
2024-04-22T13:59:50.451Z,15.88
2024-04-22T14:02:17.765Z,15.94
2024-04-22T14:04:45.085Z,16.05
2024-04-22T14:07:15.843Z,16.15
2024-04-22T14:09:43.489Z,16.15
2024-04-22T14:12:10.724Z,16.23
2024-04-22T14:14:37.879Z,16.30
2024-04-22T14:17:08.219Z,16.36
2024-04-22T14:19:36.314Z,16.40
2024-04-22T14:22:04.010Z,16.39
2024-04-22T14:24:31.195Z,16.37
2024-04-22T14:27:01.092Z,16.32
2024-04-22T14:29:28.944Z,16.26
2024-04-22T14:31:59.623Z,16.16
2024-04-22T14:34:26.849Z,16.09
2024-04-22T14:36:54.054Z,16.09
2024-04-22T14:39:21.212Z,16.04
2024-04-22T14:41:48.647Z,15.98
2024-04-22T14:44:16.268Z,15.95
2024-04-22T14:46:43.534Z,15.90
2024-04-22T14:49:10.751Z,15.85
2024-04-22T14:51:37.940Z,15.83
2024-04-22T14:54:05.214Z,15.85
2024-04-22T14:56:32.501Z,15.83
2024-04-22T14:59:00.900Z,15.79
2024-04-22T15:01:29.276Z,15.85
2024-04-22T15:03:56.599Z,15.83
2024-04-22T15:06:25.441Z,15.84
2024-04-22T15:08:52.800Z,15.88
2024-04-22T15:11:21.690Z,15.92
2024-04-22T15:13:49.170Z,15.90
2024-04-22T15:16:17.368Z,15.89
2024-04-22T15:18:44.503Z,15.82
2024-04-22T15:21:13.715Z,15.78
2024-04-22T15:23:46.961Z,15.83
2024-04-22T15:26:14.621Z,15.87
2024-04-22T15:28:42.112Z,15.78
2024-04-22T15:31:09.308Z,15.90
2024-04-22T15:33:36.604Z,15.89
2024-04-22T15:36:04.552Z,15.94
2024-04-22T15:38:32.316Z,15.96
2024-04-22T15:40:59.783Z,15.95
2024-04-22T15:43:27.103Z,15.98
2024-04-22T15:45:54.312Z,15.95
2024-04-22T15:48:21.658Z,16.00
2024-04-22T15:50:52.835Z,16.00
2024-04-22T15:53:20.243Z,15.98
2024-04-22T15:55:58.624Z,16.03
2024-04-22T15:58:26.930Z,15.97
2024-04-22T16:00:55.797Z,15.91
2024-04-22T16:03:22.992Z,15.91
2024-04-22T16:05:50.165Z,15.85
2024-04-22T16:08:17.372Z,15.83
2024-04-22T16:10:47.062Z,15.80
2024-04-22T16:13:14.423Z,15.77
2024-04-22T16:15:41.689Z,15.70
2024-04-22T16:18:09.178Z,15.71
2024-04-22T16:20:36.478Z,15.70
2024-04-22T16:23:05.816Z,15.66
2024-04-22T16:25:33.693Z,15.62
2024-04-22T16:28:01.002Z,15.63
2024-04-22T16:30:28.218Z,15.60
2024-04-22T16:32:55.509Z,15.63
2024-04-22T16:35:22.883Z,15.57
2024-04-22T16:37:50.214Z,15.60
2024-04-22T16:40:17.814Z,15.60
2024-04-22T16:42:44.983Z,15.55
2024-04-22T16:45:12.184Z,15.52
2024-04-22T16:47:39.575Z,15.46
2024-04-22T16:50:07.216Z,15.40
2024-04-22T16:52:34.507Z,15.25
2024-04-22T16:55:01.768Z,15.23
2024-04-22T16:57:28.961Z,15.16
2024-04-22T16:59:56.753Z,15.04
2024-04-22T17:02:24.487Z,15.02
2024-04-22T17:04:51.974Z,14.98
2024-04-22T17:07:19.253Z,14.93
2024-04-22T17:09:46.477Z,14.91
2024-04-22T17:12:13.709Z,14.87
2024-04-22T17:14:40.907Z,14.83
2024-04-22T17:17:08.592Z,14.79
2024-04-22T17:19:36.227Z,14.76
2024-04-22T17:22:03.568Z,14.71
2024-04-22T17:24:30.724Z,14.68
2024-04-22T17:27:01.006Z,14.64
2024-04-22T17:29:28.252Z,14.60
2024-04-22T17:31:55.672Z,14.54
2024-04-22T17:34:24.590Z,14.53
2024-04-22T17:36:53.890Z,14.50
2024-04-22T17:39:21.179Z,14.46
2024-04-22T17:41:48.414Z,14.42
2024-04-22T17:44:15.648Z,14.37
2024-04-22T17:46:42.877Z,14.31
2024-04-22T17:49:11.776Z,14.27
2024-04-22T17:51:40.082Z,14.27
2024-04-22T17:54:07.291Z,14.25
2024-04-22T17:56:34.603Z,14.20
2024-04-22T17:59:01.859Z,14.16
2024-04-22T18:01:29.080Z,14.12
2024-04-22T18:03:56.315Z,14.05
2024-04-22T18:06:23.543Z,14.02
2024-04-22T18:08:50.774Z,14.02
2024-04-22T18:11:18.128Z,14.01
2024-04-22T18:13:45.448Z,13.98
2024-04-22T18:16:12.738Z,13.95
2024-04-22T18:18:39.953Z,13.88
2024-04-22T18:21:07.212Z,13.85
2024-04-22T18:23:34.488Z,13.86
2024-04-22T18:26:09.481Z,13.85
2024-04-22T18:28:41.413Z,13.83
2024-04-22T18:31:08.708Z,13.79
2024-04-22T18:33:36.306Z,13.75
2024-04-22T18:36:03.917Z,13.67
2024-04-22T18:38:31.266Z,13.68
2024-04-22T18:40:58.512Z,13.65
2024-04-22T18:43:25.730Z,13.65
2024-04-22T18:45:52.939Z,13.61
2024-04-22T18:48:20.349Z,13.56
2024-04-22T18:50:51.162Z,13.57
2024-04-22T18:53:20.172Z,13.54
2024-04-22T18:55:47.516Z,13.52
2024-04-22T18:58:14.753Z,13.53
2024-04-22T19:00:42.058Z,13.50
2024-04-22T19:03:09.470Z,13.48
2024-04-22T19:05:37.071Z,13.45
2024-04-22T19:08:04.672Z,13.42
2024-04-22T19:10:32.130Z,13.36
2024-04-22T19:12:59.643Z,13.31
2024-04-22T19:15:26.842Z,13.28
2024-04-22T19:17:54.181Z,13.24
2024-04-22T19:20:24.440Z,13.18
2024-04-22T19:22:51.747Z,13.14
2024-04-22T19:25:19.894Z,13.13
2024-04-22T19:27:47.226Z,13.02
2024-04-22T19:30:14.452Z,13.03
2024-04-22T19:32:41.949Z,12.94
2024-04-22T19:35:09.366Z,12.89
2024-04-22T19:37:37.703Z,12.95
2024-04-22T19:40:05.934Z,12.94
2024-04-22T19:42:36.005Z,12.86
2024-04-22T19:45:04.223Z,12.86
2024-04-22T19:47:32.108Z,12.83
2024-04-22T19:49:59.735Z,12.73
2024-04-22T19:52:27.631Z,12.75
2024-04-22T19:54:57.120Z,12.67
2024-04-22T19:57:24.687Z,12.67
2024-04-22T19:59:51.976Z,12.63
2024-04-22T20:02:21.562Z,12.59
2024-04-22T20:04:48.900Z,12.53
2024-04-22T20:07:16.158Z,12.44
2024-04-22T20:09:46.687Z,12.42
2024-04-22T20:12:13.904Z,12.36
2024-04-22T20:14:41.221Z,12.32
2024-04-22T20:17:13.340Z,12.20
2024-04-22T20:19:40.700Z,12.17
2024-04-22T20:22:08.055Z,12.16
2024-04-22T20:24:35.598Z,12.12
2024-04-22T20:27:03.044Z,12.02
2024-04-22T20:29:30.254Z,12.02
2024-04-22T20:31:57.635Z,11.98
2024-04-22T20:34:25.019Z,11.94
2024-04-22T20:36:53.313Z,11.92
2024-04-22T20:39:22.757Z,11.86
2024-04-22T20:41:50.247Z,11.83
2024-04-22T20:44:18.172Z,11.83
2024-04-22T20:46:45.442Z,11.77
2024-04-22T20:49:12.673Z,11.73
2024-04-22T20:51:39.978Z,11.69
2024-04-22T20:54:07.274Z,11.60
2024-04-22T20:56:34.522Z,11.64
2024-04-22T20:59:01.843Z,11.52
2024-04-22T21:01:29.214Z,11.48
2024-04-22T21:03:56.492Z,11.36
2024-04-22T21:06:23.715Z,11.31
2024-04-22T21:08:51.139Z,11.24
2024-04-22T21:11:18.994Z,11.18
2024-04-22T21:14:01.775Z,11.14
2024-04-22T21:16:29.984Z,11.06
2024-04-22T21:19:07.126Z,11.01
2024-04-22T21:21:38.826Z,10.77
2024-04-22T21:24:06.250Z,10.82
2024-04-22T21:26:33.707Z,10.91
2024-04-22T21:29:00.930Z,10.91
2024-04-22T21:31:28.165Z,10.94
2024-04-22T21:34:07.168Z,10.91
2024-04-22T21:36:36.792Z,10.86
2024-04-22T21:39:04.387Z,10.79
2024-04-22T21:41:31.623Z,10.78
2024-04-22T21:43:59.010Z,10.74
2024-04-22T21:46:26.328Z,10.66
2024-04-22T21:48:53.711Z,10.67
2024-04-22T21:51:20.937Z,10.70
2024-04-22T21:53:49.173Z,10.67
2024-04-22T21:56:19.616Z,10.71
2024-04-22T21:59:43.990Z,10.62
2024-04-22T22:03:07.174Z,10.59
2024-04-22T22:06:30.875Z,10.58
2024-04-22T22:08:57.979Z,10.58
2024-04-22T22:11:25.358Z,10.61
2024-04-22T22:13:52.745Z,10.61
2024-04-22T22:16:20.278Z,10.58
2024-04-22T22:18:47.579Z,10.54
2024-04-22T22:21:14.899Z,10.55
2024-04-22T22:23:42.144Z,10.52
2024-04-22T22:26:09.391Z,10.48
2024-04-22T22:28:55.811Z,10.42
2024-04-22T22:31:23.117Z,10.39
2024-04-22T22:33:55.526Z,10.39
2024-04-22T22:36:22.781Z,10.36
2024-04-22T22:38:50.026Z,10.34
2024-04-22T22:41:18.745Z,10.35
2024-04-22T22:43:46.414Z,10.31
2024-04-22T22:46:13.553Z,10.33
2024-04-22T22:48:40.714Z,10.27
2024-04-22T22:51:07.993Z,10.32
2024-04-22T22:53:35.179Z,10.28
2024-04-22T22:56:03.538Z,10.29
2024-04-22T22:58:30.748Z,10.23
2024-04-22T23:00:57.996Z,10.24
2024-04-22T23:03:25.180Z,10.26
2024-04-22T23:05:52.331Z,10.24
2024-04-22T23:08:19.435Z,10.24
2024-04-22T23:10:46.714Z,10.25
2024-04-22T23:13:14.017Z,10.22
2024-04-22T23:15:41.168Z,10.16
2024-04-22T23:18:08.507Z,10.12
2024-04-22T23:20:35.649Z,10.03
2024-04-22T23:23:02.908Z,9.99
2024-04-22T23:25:30.160Z,9.95
2024-04-22T23:27:57.326Z,9.92
2024-04-22T23:30:24.637Z,9.80
2024-04-22T23:32:51.869Z,9.83
2024-04-22T23:35:19.102Z,9.77
2024-04-22T23:37:49.176Z,9.76
2024-04-22T23:40:16.340Z,9.76
2024-04-22T23:42:43.487Z,9.75
2024-04-22T23:45:10.663Z,9.71
2024-04-22T23:47:37.905Z,9.67
2024-04-22T23:50:05.633Z,9.64
2024-04-22T23:52:32.851Z,9.65
2024-04-22T23:55:00.048Z,9.66
2024-04-22T23:57:27.221Z,9.63
2024-04-22T23:59:54.715Z,9.63
